Chester, Texas
Current Conditions -  °F | °C
As of 4:53 AM on Wednesday 26 Nov 2014 (Local Time) from KLFK Reporting Station
Clear Clear  
Wind Chill: 41°   Ceiling: Unl
Heat Index: 44°   Visibility: 10mi
Dew Point: 35°   Wind: 6mph
Humidity: 71%   Direction: 180°S
Pressure: 30.15"   Gusts: NA
Location:  30.93°N, 94.6°W
Report Text: KLFK 261053Z AUTO 18005KT 10SM CLR 07/02 A3015 RMK AO2 SLP209 T00670017
Loading
Personal Weather Stations






























Interactive Weather Map New forecast layout! Learn more

10-Day Weather Forecast

Advertisements
Track Severe Weather on mobile